createdAt,value
2023-05-15T00:00:31.975Z,31.7857
2023-05-15T00:01:40.057Z,32.2857
2023-05-15T00:02:48.151Z,32.5000
2023-05-15T00:03:56.027Z,29.7857
2023-05-15T00:05:04.213Z,31.0714
2023-05-15T00:06:12.160Z,30.2143
2023-05-15T00:07:20.384Z,28.6429
2023-05-15T00:08:28.430Z,29.5000
2023-05-15T00:09:36.484Z,29.5000
2023-05-15T00:10:57.474Z,30.2857
2023-05-15T00:11:57.454Z,28.5333
2023-05-15T00:13:05.516Z,31.0000
2023-05-15T00:14:13.586Z,31.6429
2023-05-15T00:15:21.662Z,29.8571
2023-05-15T00:16:29.699Z,29.1429
2023-05-15T00:17:37.744Z,28.2143
2023-05-15T00:18:45.678Z,30.0714
2023-05-15T00:19:53.767Z,29.5714
2023-05-15T00:21:01.904Z,28.0000
2023-05-15T00:22:09.938Z,27.5714
2023-05-15T00:23:18.036Z,28.4286
2023-05-15T00:24:26.085Z,29.1429
2023-05-15T00:25:34.311Z,27.3571
2023-05-15T00:26:42.217Z,26.7857
2023-05-15T00:27:50.258Z,29.1429
2023-05-15T00:28:58.317Z,30.8571
2023-05-15T00:30:06.394Z,27.0000
2023-05-15T00:31:14.504Z,28.9286
2023-05-15T00:32:22.361Z,31.0714
2023-05-15T00:33:30.408Z,31.4286
2023-05-15T00:34:38.492Z,30.2143
2023-05-15T00:35:46.653Z,26.3571
2023-05-15T00:36:54.750Z,26.0000
2023-05-15T00:38:02.797Z,27.5714
2023-05-15T00:39:10.844Z,31.1429
2023-05-15T00:40:18.932Z,31.4286
2023-05-15T00:41:27.276Z,31.4286
2023-05-15T00:42:35.061Z,31.2143
2023-05-15T00:43:43.134Z,32.2143
2023-05-15T00:44:51.121Z,33.5000
2023-05-15T00:45:59.188Z,34.2143
2023-05-15T00:47:07.149Z,37.5714
2023-05-15T00:48:15.176Z,36.0000
2023-05-15T00:49:23.223Z,34.7143
2023-05-15T00:50:31.561Z,36.5000
2023-05-15T00:51:39.466Z,35.8571
2023-05-15T00:52:47.493Z,37.7143
2023-05-15T00:53:55.648Z,34.6429
2023-05-15T00:55:03.617Z,35.0000
2023-05-15T00:56:11.781Z,34.6429
2023-05-15T00:57:19.796Z,33.8571
2023-05-15T00:58:27.871Z,35.8571
2023-05-15T00:59:36.004Z,35.4286
2023-05-15T01:00:44.034Z,37.1429
2023-05-15T01:01:51.886Z,36.1429
2023-05-15T01:03:00.056Z,35.7143
2023-05-15T01:04:07.991Z,35.1429
2023-05-15T01:05:16.263Z,37.5000
2023-05-15T01:06:24.370Z,38.6429
2023-05-15T01:07:32.304Z,37.7857
2023-05-15T01:08:40.385Z,39.1429
2023-05-15T01:09:48.388Z,42.0000
2023-05-15T01:10:56.621Z,43.5714
2023-05-15T01:12:04.544Z,42.0714
2023-05-15T01:13:12.828Z,42.4286
2023-05-15T01:14:20.676Z,43.6429
2023-05-15T01:15:28.728Z,45.9286
2023-05-15T01:16:36.664Z,47.5000
2023-05-15T01:17:44.744Z,49.9286
2023-05-15T01:18:52.824Z,50.6429
2023-05-15T01:20:00.992Z,53.1429
2023-05-15T01:21:09.016Z,53.2857
2023-05-15T01:22:17.288Z,53.7857
2023-05-15T01:23:25.118Z,51.1429
2023-05-15T01:24:33.176Z,52.9286
2023-05-15T01:25:41.461Z,55.0000
2023-05-15T01:26:49.332Z,53.0714
2023-05-15T01:27:57.421Z,54.5000
2023-05-15T01:29:05.383Z,57.7143
2023-05-15T01:30:13.639Z,57.5000
2023-05-15T01:31:21.398Z,53.9286
2023-05-15T01:32:29.480Z,54.7143
2023-05-15T01:33:37.530Z,55.3571
2023-05-15T01:34:45.691Z,55.4286
2023-05-15T01:35:53.755Z,52.0714
2023-05-15T01:37:01.839Z,55.0714
2023-05-15T01:38:09.972Z,54.5714
2023-05-15T01:39:17.947Z,52.5000
2023-05-15T01:40:26.231Z,52.9286
2023-05-15T01:41:34.037Z,48.1429
2023-05-15T01:42:42.344Z,49.3571
2023-05-15T01:43:50.189Z,50.2857
2023-05-15T01:44:58.362Z,46.8571
2023-05-15T01:46:06.151Z,47.4286
2023-05-15T01:47:14.197Z,48.0000
2023-05-15T01:48:22.257Z,47.8571
2023-05-15T01:49:30.667Z,51.4286
2023-05-15T01:50:38.530Z,47.5000
2023-05-15T01:51:46.623Z,47.4286
2023-05-15T01:52:54.655Z,46.7143
2023-05-15T01:54:02.805Z,48.0714
2023-05-15T01:55:10.816Z,50.5714
2023-05-15T01:56:18.874Z,52.5714
2023-05-15T01:57:26.890Z,51.2143
2023-05-15T01:58:34.918Z,50.5714
2023-05-15T01:59:43.024Z,50.7143
2023-05-15T02:00:50.941Z,54.1429
2023-05-15T02:01:59.056Z,55.3571
2023-05-15T02:03:07.176Z,57.4286
2023-05-15T02:04:15.248Z,60.0000
2023-05-15T02:05:23.489Z,58.7857
2023-05-15T02:06:31.421Z,58.3571
2023-05-15T02:07:39.518Z,58.0000
2023-05-15T02:08:47.499Z,57.3571
2023-05-15T02:09:55.755Z,53.8571
2023-05-15T02:11:03.648Z,51.7857
2023-05-15T02:12:11.883Z,50.1429
2023-05-15T02:13:19.814Z,45.4286
2023-05-15T02:14:27.867Z,46.2143
2023-05-15T02:15:35.729Z,46.9286
2023-05-15T02:16:43.929Z,48.2857
2023-05-15T02:17:51.963Z,44.6429
2023-05-15T02:19:00.213Z,45.9286
2023-05-15T02:20:08.144Z,46.2857
2023-05-15T02:21:16.237Z,46.2143
2023-05-15T02:22:24.219Z,46.7857
2023-05-15T02:23:32.301Z,48.7143
2023-05-15T02:24:40.400Z,48.7857
2023-05-15T02:25:48.563Z,48.8571
2023-05-15T02:26:56.505Z,49.0000
2023-05-15T02:28:04.671Z,50.0000
2023-05-15T02:29:12.808Z,48.5714
2023-05-15T02:30:20.596Z,48.0714
2023-05-15T02:31:28.664Z,51.5000
2023-05-15T02:32:36.685Z,49.2857
2023-05-15T02:33:44.914Z,48.5000
2023-05-15T02:34:52.900Z,47.7143
2023-05-15T02:36:01.110Z,49.7143
2023-05-15T02:37:09.042Z,47.5000
2023-05-15T02:38:17.101Z,49.5000
2023-05-15T02:39:25.202Z,47.5714
2023-05-15T02:40:33.210Z,48.5000
2023-05-15T02:41:41.328Z,47.2143
2023-05-15T02:42:49.444Z,50.2143
2023-05-15T02:43:57.380Z,50.0000
2023-05-15T02:45:05.329Z,49.8571
2023-05-15T02:46:13.427Z,49.0714
2023-05-15T02:47:21.488Z,49.0000
2023-05-15T02:48:29.595Z,50.0714
2023-05-15T02:49:37.588Z,51.3571
2023-05-15T02:50:45.783Z,51.2143
2023-05-15T02:51:53.943Z,47.6429
2023-05-15T02:53:01.920Z,44.7857
2023-05-15T02:54:09.968Z,46.7857
2023-05-15T02:55:17.992Z,46.9286
2023-05-15T02:56:26.075Z,46.9286
2023-05-15T02:57:34.135Z,42.5714
2023-05-15T02:58:42.255Z,44.3571
2023-05-15T02:59:50.121Z,45.5714
2023-05-15T03:00:58.201Z,44.5000
2023-05-15T03:02:06.237Z,45.5000
2023-05-15T03:03:14.455Z,43.4286
2023-05-15T03:04:22.574Z,45.0714
2023-05-15T03:05:30.564Z,44.3571
2023-05-15T03:06:38.605Z,46.4286
2023-05-15T03:07:46.930Z,47.7143
2023-05-15T03:08:54.786Z,44.0714
2023-05-15T03:10:02.838Z,45.2143
2023-05-15T03:11:10.943Z,49.0000
2023-05-15T03:12:18.953Z,46.1429
2023-05-15T03:13:27.003Z,45.6429
2023-05-15T03:14:34.910Z,44.2857
2023-05-15T03:15:42.976Z,42.9286
2023-05-15T03:16:51.049Z,44.7143
2023-05-15T03:17:59.211Z,41.6429
2023-05-15T03:19:07.381Z,42.5000
2023-05-15T03:20:15.316Z,37.7143
2023-05-15T03:21:23.390Z,40.7143
2023-05-15T03:22:31.436Z,39.1429
2023-05-15T03:23:39.558Z,42.0000
2023-05-15T03:24:47.546Z,40.7857
2023-05-15T03:25:55.624Z,37.3571
2023-05-15T03:27:03.714Z,39.2857
2023-05-15T03:28:11.743Z,37.5000
2023-05-15T03:29:19.644Z,40.7143
2023-05-15T03:30:27.708Z,40.0000
2023-05-15T03:31:35.916Z,36.6429
2023-05-15T03:32:44.056Z,35.7857
2023-05-15T03:33:52.063Z,37.8571
2023-05-15T03:35:00.057Z,37.6429
2023-05-15T03:36:08.100Z,36.4286
2023-05-15T03:37:16.242Z,37.7857
2023-05-15T03:38:24.300Z,34.0714
2023-05-15T03:39:32.415Z,34.5714
2023-05-15T03:40:40.382Z,32.3571
2023-05-15T03:41:48.417Z,30.8571
2023-05-15T03:42:56.616Z,33.1429
2023-05-15T03:44:04.454Z,37.2857
2023-05-15T03:45:12.491Z,34.9286
2023-05-15T03:46:20.557Z,36.5000
2023-05-15T03:47:28.721Z,33.7857
2023-05-15T03:48:36.772Z,35.8571
2023-05-15T03:49:44.936Z,31.2857
2023-05-15T03:50:52.791Z,35.8571
2023-05-15T03:52:00.950Z,31.8571
2023-05-15T03:53:09.024Z,33.0000
2023-05-15T03:54:17.077Z,33.8571
2023-05-15T03:55:25.500Z,36.7143
2023-05-15T03:56:33.305Z,34.9286
2023-05-15T03:57:41.453Z,37.5714
2023-05-15T03:58:49.172Z,35.5714
2023-05-15T03:59:57.231Z,36.9286
2023-05-15T04:01:05.307Z,38.2143
2023-05-15T04:02:13.512Z,41.6429
2023-05-15T04:03:21.677Z,43.6429
2023-05-15T04:04:29.580Z,40.3571
2023-05-15T04:05:37.828Z,41.0714
2023-05-15T04:06:45.756Z,44.8571
2023-05-15T04:07:53.788Z,42.7143
2023-05-15T04:09:01.863Z,41.2143
2023-05-15T04:10:09.928Z,41.8571
2023-05-15T04:11:17.950Z,42.2143
2023-05-15T04:12:26.078Z,44.7857
2023-05-15T04:13:33.974Z,45.3571
2023-05-15T04:14:42.030Z,44.2857
2023-05-15T04:15:50.077Z,44.7143
2023-05-15T04:16:58.292Z,45.2857
2023-05-15T04:18:06.375Z,48.5000
2023-05-15T04:19:14.464Z,47.5000
2023-05-15T04:20:22.472Z,46.2143
2023-05-15T04:21:30.500Z,43.7143
2023-05-15T04:22:38.577Z,47.4286
2023-05-15T04:23:46.670Z,43.7857
2023-05-15T04:24:54.685Z,45.0000
2023-05-15T04:26:02.736Z,44.4286
2023-05-15T04:27:10.809Z,45.1429
2023-05-15T04:28:18.714Z,40.9286
2023-05-15T04:29:26.816Z,41.7857
2023-05-15T04:30:34.838Z,43.0000
2023-05-15T04:31:43.167Z,38.7143
2023-05-15T04:32:51.274Z,44.8571
2023-05-15T04:33:59.168Z,40.9286
2023-05-15T04:35:07.322Z,40.2857
2023-05-15T04:36:15.278Z,40.6429
2023-05-15T04:37:23.293Z,40.6429
2023-05-15T04:38:31.456Z,40.7857
2023-05-15T04:39:39.437Z,43.7143
2023-05-15T04:40:47.541Z,43.6429
2023-05-15T04:41:55.593Z,44.2143
2023-05-15T04:43:03.511Z,43.3571
2023-05-15T04:44:11.559Z,45.5000
2023-05-15T04:45:19.606Z,43.4286
2023-05-15T04:46:28.041Z,43.4286
2023-05-15T04:47:35.906Z,47.9286
2023-05-15T04:48:43.894Z,48.9286
2023-05-15T04:49:51.946Z,48.2143
2023-05-15T04:51:00.001Z,46.7857
2023-05-15T04:52:07.975Z,45.7857
2023-05-15T04:53:16.118Z,48.4286
2023-05-15T04:54:24.258Z,45.5000
2023-05-15T04:55:33.608Z,44.2857
2023-05-15T04:56:40.155Z,47.0714
2023-05-15T04:57:48.287Z,46.4286
2023-05-15T04:58:56.227Z,44.1429
2023-05-15T05:00:04.439Z,42.7857
2023-05-15T05:01:12.573Z,41.6429
2023-05-15T05:02:20.644Z,44.5714
2023-05-15T05:03:28.684Z,42.9286
2023-05-15T05:04:36.651Z,44.5714
2023-05-15T05:05:44.795Z,43.3571
2023-05-15T05:06:52.858Z,41.4286
2023-05-15T05:08:00.877Z,42.3571
2023-05-15T05:09:09.156Z,47.2143
2023-05-15T05:10:17.040Z,48.5714
2023-05-15T05:11:24.943Z,46.3571
2023-05-15T05:12:33.001Z,46.1429
2023-05-15T05:13:41.081Z,45.0000
2023-05-15T05:14:49.308Z,44.7143
2023-05-15T05:15:57.298Z,47.7857
2023-05-15T05:17:05.364Z,43.1429
2023-05-15T05:18:13.405Z,45.7143
2023-05-15T05:19:21.477Z,44.6429
2023-05-15T05:20:29.568Z,44.2857
2023-05-15T05:21:37.572Z,44.4286
2023-05-15T05:22:45.632Z,43.2143
2023-05-15T05:23:53.723Z,45.7143
2023-05-15T05:25:01.761Z,45.5714
2023-05-15T05:26:09.774Z,46.0714
2023-05-15T05:27:17.776Z,44.0000
2023-05-15T05:28:25.827Z,44.7857
2023-05-15T05:29:33.994Z,43.6429
2023-05-15T05:30:42.024Z,45.6429
2023-05-15T05:31:50.248Z,46.5714
2023-05-15T05:32:58.452Z,49.5000
2023-05-15T05:34:06.233Z,51.8571
2023-05-15T05:35:14.314Z,52.2143
2023-05-15T05:36:22.350Z,54.0714
2023-05-15T05:37:30.423Z,52.7143
2023-05-15T05:38:38.470Z,55.2143
2023-05-15T05:39:46.543Z,56.9286
2023-05-15T05:40:54.426Z,54.2857
2023-05-15T05:42:02.499Z,55.9286
2023-05-15T05:43:10.610Z,56.7143
2023-05-15T05:44:18.741Z,57.9286
2023-05-15T05:45:26.957Z,57.1429
2023-05-15T05:46:34.899Z,58.7143
2023-05-15T05:47:42.892Z,59.6429
2023-05-15T05:48:51.050Z,60.5000
2023-05-15T05:49:59.111Z,62.3571
2023-05-15T05:51:07.063Z,63.5714
2023-05-15T05:52:15.173Z,63.5714
2023-05-15T05:53:23.103Z,61.2857
2023-05-15T05:54:31.326Z,62.8571
2023-05-15T05:55:39.218Z,63.1429
2023-05-15T05:56:47.287Z,62.1429
2023-05-15T05:57:55.333Z,62.6429
2023-05-15T05:59:03.728Z,61.6429
2023-05-15T06:00:11.616Z,61.2857
2023-05-15T06:01:19.612Z,64.5714
2023-05-15T06:02:27.810Z,66.2143
2023-05-15T06:03:35.821Z,64.2857
2023-05-15T06:04:43.810Z,62.5714
2023-05-15T06:05:51.951Z,60.5000
2023-05-15T06:06:59.927Z,63.3571
2023-05-15T06:08:08.070Z,60.3571
2023-05-15T06:09:16.123Z,63.0714
2023-05-15T06:10:24.235Z,62.2857
2023-05-15T06:11:32.103Z,65.4286
2023-05-15T06:12:40.125Z,61.3571
2023-05-15T06:13:48.279Z,61.5000
2023-05-15T06:14:56.587Z,62.7143
2023-05-15T06:16:04.365Z,63.2857
2023-05-15T06:17:12.589Z,64.2143
2023-05-15T06:18:20.558Z,66.5000
2023-05-15T06:19:28.559Z,65.0000
2023-05-15T06:20:36.586Z,65.5000
2023-05-15T06:21:44.850Z,63.9286
2023-05-15T06:22:52.750Z,66.3571
2023-05-15T06:24:00.840Z,68.2143
2023-05-15T06:25:08.774Z,68.9286
2023-05-15T06:26:16.821Z,71.2143
2023-05-15T06:27:24.860Z,68.5714
2023-05-15T06:28:33.100Z,72.5000
2023-05-15T06:29:41.140Z,74.7857
2023-05-15T06:30:49.282Z,74.3571
2023-05-15T06:31:57.215Z,72.3571
2023-05-15T06:33:05.383Z,71.7143
2023-05-15T06:34:13.390Z,71.8571
2023-05-15T06:35:21.412Z,68.8571
2023-05-15T06:36:29.518Z,74.4286
2023-05-15T06:37:37.549Z,74.1429
2023-05-15T06:38:45.727Z,75.0714
2023-05-15T06:39:53.571Z,77.5000
2023-05-15T06:41:01.558Z,77.5714
2023-05-15T06:42:09.625Z,73.3571
2023-05-15T06:43:17.828Z,77.3571
2023-05-15T06:44:25.919Z,77.4286
2023-05-15T06:45:34.016Z,83.3571
2023-05-15T06:46:42.371Z,82.1429
2023-05-15T06:47:50.113Z,84.0714
2023-05-15T06:48:58.123Z,84.0000
2023-05-15T06:50:06.154Z,86.2143
2023-05-15T06:51:14.286Z,89.4286
2023-05-15T06:52:22.311Z,84.8571
2023-05-15T06:53:30.349Z,88.3571
2023-05-15T06:54:38.296Z,90.4286
2023-05-15T06:55:46.358Z,90.0000
2023-05-15T06:56:54.450Z,90.0000
2023-05-15T06:58:02.724Z,89.5714
2023-05-15T06:59:10.875Z,88.6429
2023-05-15T07:00:18.714Z,89.5714
2023-05-15T07:01:26.867Z,89.7857
2023-05-15T07:02:35.028Z,90.2143
2023-05-15T07:03:42.889Z,89.7143
2023-05-15T07:04:51.210Z,88.8571
2023-05-15T07:05:59.016Z,90.0714
2023-05-15T07:07:07.049Z,88.8571
2023-05-15T07:08:15.144Z,86.2143
2023-05-15T07:09:23.064Z,89.2143
2023-05-15T07:10:31.117Z,87.2143
2023-05-15T07:11:39.162Z,86.9286
2023-05-15T07:12:47.333Z,89.0000
2023-05-15T07:13:55.495Z,85.5000
2023-05-15T07:15:03.508Z,84.7857
2023-05-15T07:16:11.557Z,83.5000
2023-05-15T07:17:19.619Z,81.0714
2023-05-15T07:18:27.811Z,79.0000
2023-05-15T07:19:35.832Z,74.5714
2023-05-15T07:20:43.753Z,78.0714
2023-05-15T07:21:51.832Z,76.8571
2023-05-15T07:22:59.931Z,78.5714
2023-05-15T07:24:07.803Z,78.6429
2023-05-15T07:25:17.069Z,83.4286
2023-05-15T07:26:34.246Z,79.5000
2023-05-15T07:27:37.027Z,81.2667
2023-05-15T07:28:45.009Z,79.5000
2023-05-15T07:29:53.076Z,83.2857
2023-05-15T07:31:02.988Z,87.5714
2023-05-15T07:32:14.054Z,85.3333
2023-05-15T07:33:22.122Z,81.7857
2023-05-15T07:34:30.230Z,84.1429
2023-05-15T07:35:38.236Z,87.5714
2023-05-15T07:36:46.229Z,89.3571
2023-05-15T07:37:54.354Z,88.8571
2023-05-15T07:39:02.406Z,89.6429
2023-05-15T07:40:10.469Z,91.5714
2023-05-15T07:41:18.517Z,91.2143
2023-05-15T07:42:26.677Z,92.3571
2023-05-15T07:43:34.653Z,93.5714
2023-05-15T07:44:44.996Z,90.6429
2023-05-15T07:45:55.873Z,89.7333
2023-05-15T07:47:03.733Z,90.6429
2023-05-15T07:48:11.792Z,91.6429
2023-05-15T07:49:19.810Z,92.0000
2023-05-15T07:50:27.759Z,91.2857
2023-05-15T07:51:35.844Z,94.7143
2023-05-15T07:52:43.886Z,97.2143
2023-05-15T07:53:52.254Z,97.6429
2023-05-15T07:55:00.137Z,95.0714
2023-05-15T07:56:08.172Z,95.3571
2023-05-15T07:57:16.278Z,94.2143
2023-05-15T07:58:24.288Z,88.7143
2023-05-15T07:59:32.537Z,89.7143
2023-05-15T08:00:40.412Z,88.6429
2023-05-15T08:01:48.456Z,87.2143
2023-05-15T08:02:56.586Z,89.7143
2023-05-15T08:04:04.630Z,90.0714
2023-05-15T08:05:12.603Z,87.2857
2023-05-15T08:06:20.573Z,81.3571
2023-05-15T08:07:28.665Z,80.2857
2023-05-15T08:08:36.812Z,80.9286
2023-05-15T08:09:45.109Z,79.5000
2023-05-15T08:10:52.933Z,76.9286
2023-05-15T08:12:01.044Z,74.7143
2023-05-15T08:13:09.072Z,73.6429
2023-05-15T08:14:17.103Z,72.3571
2023-05-15T08:15:25.478Z,74.6429
2023-05-15T08:16:33.549Z,70.0714
2023-05-15T08:17:41.292Z,69.7857
2023-05-15T08:18:49.597Z,70.1429
2023-05-15T08:19:57.250Z,71.2143
2023-05-15T08:21:05.346Z,71.2143
2023-05-15T08:22:13.449Z,69.5714
2023-05-15T08:23:21.591Z,72.6429
2023-05-15T08:24:29.642Z,73.2143
2023-05-15T08:25:37.828Z,75.4286
2023-05-15T08:26:45.738Z,77.8571
2023-05-15T08:27:53.844Z,79.6429
2023-05-15T08:29:01.857Z,78.9286
2023-05-15T08:30:09.898Z,81.7857
2023-05-15T08:31:18.008Z,80.7143
2023-05-15T08:32:26.374Z,83.9286
2023-05-15T08:33:34.004Z,84.7857
2023-05-15T08:34:42.021Z,87.0714
2023-05-15T08:35:50.131Z,86.7857
2023-05-15T08:36:58.318Z,83.0000
2023-05-15T08:38:06.329Z,87.6429
2023-05-15T08:39:14.429Z,88.8571
2023-05-15T08:40:34.404Z,91.1429
2023-05-15T08:42:48.313Z,93.8667
2023-05-15T08:43:56.464Z,91.9286
2023-05-15T08:45:04.460Z,96.1429
2023-05-15T08:46:12.624Z,94.4286
2023-05-15T08:47:20.379Z,95.5000
2023-05-15T08:48:28.521Z,95.5714
2023-05-15T08:49:36.510Z,96.4286
2023-05-15T08:50:44.690Z,97.4286
2023-05-15T08:51:52.753Z,94.6429
2023-05-15T08:53:00.873Z,91.3571
2023-05-15T08:54:08.889Z,92.2143
2023-05-15T08:55:16.945Z,93.8571
2023-05-15T08:56:25.069Z,93.5000
2023-05-15T08:57:33.021Z,93.4286
2023-05-15T08:58:41.353Z,95.9286
2023-05-15T08:59:49.200Z,94.0000
2023-05-15T09:00:57.220Z,92.5714
2023-05-15T09:02:05.308Z,99.0000
2023-05-15T09:03:13.313Z,99.2857
2023-05-15T09:04:21.286Z,95.0000
2023-05-15T09:05:29.419Z,98.0714
2023-05-15T09:06:37.539Z,94.2143
2023-05-15T09:07:45.763Z,100.4286
2023-05-15T09:08:53.622Z,100.5000
2023-05-15T09:10:01.678Z,100.2143
2023-05-15T09:11:09.716Z,102.8571
2023-05-15T09:12:17.802Z,104.5714
2023-05-15T09:13:25.889Z,103.3571
2023-05-15T09:14:33.981Z,103.3571
2023-05-15T09:15:42.158Z,104.8571
2023-05-15T09:16:50.006Z,103.0714
2023-05-15T09:17:58.041Z,108.1429
2023-05-15T09:19:06.189Z,103.8571
2023-05-15T09:20:14.283Z,102.9286
2023-05-15T09:21:22.316Z,101.3571
2023-05-15T09:22:30.386Z,95.5714
2023-05-15T09:23:38.562Z,92.1429
2023-05-15T09:24:46.563Z,88.6429
2023-05-15T09:25:54.550Z,87.9286
2023-05-15T09:27:02.601Z,86.5000
2023-05-15T09:28:10.719Z,82.7857
2023-05-15T09:29:19.313Z,82.6429
2023-05-15T09:30:26.729Z,84.2857
2023-05-15T09:31:34.778Z,83.8571
2023-05-15T09:32:42.811Z,85.0000
2023-05-15T09:33:50.946Z,82.3571
2023-05-15T09:34:59.027Z,85.1429
2023-05-15T09:36:07.122Z,83.7143
2023-05-15T09:37:15.126Z,84.0714
2023-05-15T09:38:23.212Z,82.1429
2023-05-15T09:39:31.236Z,81.6429
2023-05-15T09:40:39.303Z,79.9286
2023-05-15T09:41:47.433Z,77.7857
2023-05-15T09:42:55.409Z,75.0714
2023-05-15T09:44:03.499Z,78.5000
2023-05-15T09:45:11.887Z,74.5000
2023-05-15T09:46:19.633Z,77.7857
2023-05-15T09:47:27.677Z,77.7857
2023-05-15T09:48:36.038Z,77.4286
2023-05-15T09:49:43.781Z,76.3571
2023-05-15T09:50:51.819Z,79.2857
2023-05-15T09:51:59.914Z,78.1429
2023-05-15T09:53:08.012Z,80.4286
2023-05-15T09:54:16.005Z,80.5000
2023-05-15T09:55:24.107Z,81.8571
2023-05-15T09:56:32.350Z,84.6429
2023-05-15T09:57:40.197Z,87.2857
2023-05-15T09:58:48.286Z,94.2857
2023-05-15T09:59:56.171Z,96.2857
2023-05-15T10:01:04.406Z,104.0714
2023-05-15T10:02:12.256Z,114.8571
2023-05-15T10:03:20.508Z,130.2143
2023-05-15T10:04:28.615Z,145.9286
2023-05-15T10:06:49.485Z,158.4667
2023-05-15T10:07:57.577Z,161.8571
2023-05-15T10:09:05.645Z,164.4286
2023-05-15T10:10:13.736Z,170.8571
2023-05-15T10:11:21.835Z,179.2143
2023-05-15T10:12:29.815Z,190.5714
2023-05-15T10:13:37.724Z,200.7857
2023-05-15T10:14:45.767Z,209.1429
2023-05-15T10:15:53.957Z,217.6429
2023-05-15T10:17:02.020Z,235.4286
2023-05-15T10:18:10.092Z,246.4286
2023-05-15T10:19:18.158Z,253.8571
2023-05-15T10:20:26.391Z,266.6429
2023-05-15T10:21:34.262Z,276.2143
2023-05-15T10:22:42.311Z,288.1429
2023-05-15T10:23:50.350Z,289.2857
2023-05-15T10:24:58.408Z,286.9286
2023-05-15T10:26:06.486Z,274.8571
2023-05-15T10:27:14.582Z,261.2143
2023-05-15T10:28:22.463Z,260.0714
2023-05-15T10:29:30.513Z,259.2857
2023-05-15T10:30:38.564Z,246.0000
2023-05-15T10:31:46.767Z,245.0000
2023-05-15T10:32:54.876Z,239.7857
2023-05-15T10:34:02.876Z,236.2143
2023-05-15T10:35:10.925Z,224.2143
2023-05-15T10:36:19.063Z,223.7143
2023-05-15T10:37:27.018Z,221.1429
2023-05-15T10:38:35.206Z,219.9286
2023-05-15T10:39:43.155Z,218.0000
2023-05-15T10:40:51.204Z,212.2857
2023-05-15T10:41:59.240Z,209.7143
2023-05-15T10:43:07.170Z,197.2143
2023-05-15T10:44:15.294Z,181.0000
2023-05-15T10:45:23.293Z,168.0000
2023-05-15T10:46:31.630Z,157.2143
2023-05-15T10:47:39.642Z,150.7143
2023-05-15T10:48:47.718Z,141.7857
2023-05-15T10:49:55.719Z,135.0714
2023-05-15T10:51:03.748Z,129.1429
2023-05-15T10:52:11.959Z,124.1429
2023-05-15T10:53:19.783Z,124.5714
2023-05-15T10:54:27.917Z,119.5000
2023-05-15T10:55:35.931Z,117.6429
2023-05-15T10:56:43.943Z,114.4286
2023-05-15T10:57:51.915Z,109.5000
2023-05-15T10:58:59.966Z,102.3571
2023-05-15T11:00:08.014Z,94.7857
2023-05-15T11:01:16.463Z,91.5714
2023-05-15T11:02:24.267Z,89.9286
2023-05-15T11:03:41.267Z,81.1429
2023-05-15T11:04:45.314Z,76.8000
2023-05-15T11:05:53.382Z,71.7143
2023-05-15T11:07:01.389Z,69.2857
2023-05-15T11:08:09.492Z,71.9286
2023-05-15T11:09:17.600Z,70.4286
2023-05-15T11:10:25.621Z,73.2143
2023-05-15T11:11:33.470Z,72.5714
2023-05-15T11:12:41.554Z,69.8571
2023-05-15T11:13:49.600Z,68.7857
2023-05-15T11:14:57.735Z,72.7857
2023-05-15T11:16:05.846Z,75.4286
2023-05-15T11:17:14.039Z,77.3571
2023-05-15T11:18:21.974Z,80.0000
2023-05-15T11:19:30.003Z,82.9286
2023-05-15T11:20:38.157Z,89.4286
2023-05-15T11:21:46.094Z,94.2857
2023-05-15T11:22:54.143Z,91.6429
2023-05-15T11:24:02.287Z,96.7143
2023-05-15T11:25:10.405Z,99.1429
2023-05-15T11:26:18.196Z,98.7143
2023-05-15T11:27:26.337Z,100.6429
2023-05-15T11:28:34.320Z,110.6429
2023-05-15T11:29:42.510Z,115.0000
2023-05-15T11:30:50.552Z,123.8571
2023-05-15T11:31:58.635Z,132.0000
2023-05-15T11:33:06.822Z,134.4286
2023-05-15T11:34:14.770Z,137.2143
2023-05-15T11:35:22.795Z,146.0714
2023-05-15T11:36:30.947Z,145.3571
2023-05-15T11:37:38.800Z,153.8571
2023-05-15T11:38:46.833Z,158.2143
2023-05-15T11:39:54.895Z,154.7857
2023-05-15T11:41:03.170Z,156.2857
2023-05-15T11:42:11.385Z,151.5714
2023-05-15T11:43:19.188Z,148.2143
2023-05-15T11:44:27.289Z,148.5000
2023-05-15T11:45:35.537Z,146.3571
2023-05-15T11:46:43.452Z,153.9286
2023-05-15T11:47:51.515Z,154.2857
2023-05-15T11:49:00.155Z,162.6429
2023-05-15T11:50:07.576Z,168.9286
2023-05-15T11:51:15.644Z,173.0714
2023-05-15T11:52:23.708Z,183.3571
2023-05-15T11:53:31.586Z,199.1429
2023-05-15T11:54:39.656Z,218.2857
2023-05-15T11:55:47.713Z,235.4286
2023-05-15T11:56:56.154Z,255.1429
2023-05-15T11:58:04.263Z,270.6429
2023-05-15T11:59:12.082Z,285.3571
2023-05-15T12:00:20.093Z,291.3571
2023-05-15T12:01:28.162Z,294.7143
2023-05-15T12:02:36.272Z,298.6429
2023-05-15T12:03:44.456Z,303.3571
2023-05-15T12:04:52.547Z,300.2857
2023-05-15T12:06:00.534Z,306.4286
2023-05-15T12:07:08.445Z,308.4286
2023-05-15T12:08:16.378Z,301.6429
2023-05-15T12:09:24.489Z,312.7857
2023-05-15T12:10:32.491Z,328.5000
2023-05-15T12:11:40.656Z,345.7857
2023-05-15T12:12:48.883Z,363.5000
2023-05-15T12:13:56.924Z,377.0714
2023-05-15T12:15:04.901Z,389.5714
2023-05-15T12:16:13.031Z,411.2857
2023-05-15T12:17:21.006Z,422.0714
2023-05-15T12:18:29.051Z,440.5000
2023-05-15T12:19:37.105Z,463.6429
2023-05-15T12:20:45.278Z,471.7143
2023-05-15T12:21:53.301Z,478.8571
2023-05-15T12:23:01.156Z,468.2857
2023-05-15T12:24:09.210Z,454.2143
2023-05-15T12:25:17.273Z,448.6429
2023-05-15T12:26:25.499Z,439.1429
2023-05-15T12:27:33.527Z,433.6429
2023-05-15T12:28:41.765Z,435.6429
2023-05-15T12:29:49.763Z,437.5000
2023-05-15T12:30:57.695Z,425.2143
2023-05-15T12:32:05.895Z,407.7143
2023-05-15T12:33:13.828Z,381.0714
2023-05-15T12:34:22.033Z,369.8571
2023-05-15T12:35:30.095Z,362.4286
2023-05-15T12:36:38.021Z,349.5000
2023-05-15T12:37:45.990Z,338.9286
2023-05-15T12:38:53.967Z,325.3571
2023-05-15T12:40:02.116Z,309.0000
2023-05-15T12:41:10.217Z,295.0714
2023-05-15T12:42:18.309Z,287.4286
2023-05-15T12:43:26.448Z,282.7857
2023-05-15T12:44:34.341Z,290.4286
2023-05-15T12:45:42.640Z,309.0714
2023-05-15T12:46:50.512Z,336.2143
2023-05-15T12:47:58.582Z,378.2857
2023-05-15T12:49:06.655Z,411.3571
2023-05-15T12:50:14.724Z,420.8571
2023-05-15T12:51:22.760Z,450.5000
2023-05-15T12:52:30.692Z,479.8571
2023-05-15T12:53:38.762Z,468.3571
2023-05-15T12:54:46.852Z,445.5714
2023-05-15T12:55:54.994Z,416.9286
2023-05-15T12:57:03.360Z,395.7857
2023-05-15T12:58:11.119Z,374.7143
2023-05-15T12:59:19.150Z,357.6429
2023-05-15T13:00:27.421Z,332.6429
2023-05-15T13:01:35.470Z,317.3571
2023-05-15T13:02:43.427Z,313.6429
2023-05-15T13:03:51.568Z,305.5714
2023-05-15T13:04:59.508Z,290.1429
2023-05-15T13:06:07.632Z,277.9286
2023-05-15T13:07:15.482Z,273.6429
2023-05-15T13:08:23.533Z,262.5000
2023-05-15T13:09:31.620Z,251.5714
2023-05-15T13:10:39.767Z,238.2857
2023-05-15T13:11:47.982Z,223.2857
2023-05-15T13:12:55.919Z,208.2143
2023-05-15T13:14:04.010Z,194.3571
2023-05-15T13:15:12.319Z,189.7857
2023-05-15T13:16:20.172Z,178.0714
2023-05-15T13:17:28.360Z,172.3571
2023-05-15T13:18:36.291Z,161.8571
2023-05-15T13:19:44.309Z,156.2857
2023-05-15T13:20:52.354Z,154.5000
2023-05-15T13:22:00.285Z,152.7857
2023-05-15T13:23:08.477Z,149.7857
2023-05-15T13:24:16.474Z,148.0714
2023-05-15T13:25:24.675Z,142.7857
2023-05-15T13:26:32.723Z,141.2143
2023-05-15T13:27:40.858Z,139.9286
2023-05-15T13:28:48.907Z,134.5714
2023-05-15T13:29:56.945Z,140.8571
2023-05-15T13:31:05.023Z,151.7143
2023-05-15T13:32:13.049Z,169.7857
2023-05-15T13:33:21.055Z,199.7857
2023-05-15T13:34:29.358Z,209.9286
2023-05-15T13:35:37.212Z,216.0000
2023-05-15T13:36:45.149Z,213.5714
2023-05-15T13:37:53.195Z,205.7143
2023-05-15T13:39:01.278Z,196.2143
2023-05-15T13:40:09.503Z,189.6429